createdAt,value
2022-10-09T00:01:22.201Z,55.96
2022-10-09T00:03:52.903Z,56.22
2022-10-09T00:06:24.023Z,56.11
2022-10-09T00:08:54.024Z,56.13
2022-10-09T00:11:27.351Z,55.90
2022-10-09T00:13:56.317Z,56.18
2022-10-09T00:16:24.259Z,55.90
2022-10-09T00:18:52.199Z,55.75
2022-10-09T00:21:29.037Z,55.83
2022-10-09T00:23:58.829Z,55.71
2022-10-09T00:26:26.142Z,55.63
2022-10-09T00:28:54.578Z,55.74
2022-10-09T00:31:22.352Z,55.84
2022-10-09T00:33:49.539Z,55.60
2022-10-09T00:36:20.509Z,55.71
2022-10-09T00:38:48.230Z,55.74
2022-10-09T00:41:23.237Z,55.78
2022-10-09T00:43:55.895Z,55.66
2022-10-09T00:46:46.058Z,56.13
2022-10-09T00:49:29.673Z,55.91
2022-10-09T00:52:02.522Z,56.75
2022-10-09T00:54:34.387Z,56.92
2022-10-09T00:57:01.962Z,57.37
2022-10-09T00:59:30.214Z,57.79
2022-10-09T01:01:57.647Z,57.88
2022-10-09T01:04:24.775Z,58.00
2022-10-09T01:07:19.036Z,58.50
2022-10-09T01:10:03.893Z,58.92
2022-10-09T01:12:50.615Z,59.33
2022-10-09T01:15:57.310Z,59.24
2022-10-09T01:18:32.338Z,59.32
2022-10-09T01:21:13.162Z,59.33
2022-10-09T01:23:40.146Z,59.37
2022-10-09T01:26:19.152Z,59.19
2022-10-09T01:28:57.704Z,59.27
2022-10-09T01:31:28.892Z,58.73
2022-10-09T01:33:57.652Z,58.68
2022-10-09T01:36:25.702Z,58.78
2022-10-09T01:38:54.134Z,58.58
2022-10-09T01:41:21.361Z,58.26
2022-10-09T01:43:48.553Z,58.21
2022-10-09T01:46:24.644Z,58.66
2022-10-09T01:49:33.751Z,58.73
2022-10-09T01:52:23.988Z,58.95
2022-10-09T01:55:15.622Z,58.71
2022-10-09T01:58:06.669Z,58.23
2022-10-09T02:00:58.602Z,57.98
2022-10-09T02:03:27.415Z,57.92
2022-10-09T02:05:55.920Z,58.37
2022-10-09T02:08:25.147Z,58.17
2022-10-09T02:10:56.920Z,58.39
2022-10-09T02:13:24.092Z,58.12
2022-10-09T02:16:14.662Z,58.44
2022-10-09T02:19:11.464Z,58.36
2022-10-09T02:21:46.554Z,58.28
2022-10-09T02:24:19.685Z,58.51
2022-10-09T02:26:47.071Z,58.30
2022-10-09T02:29:15.821Z,58.57
2022-10-09T02:31:44.229Z,58.91
2022-10-09T02:34:17.460Z,58.84
2022-10-09T02:36:44.550Z,58.66
2022-10-09T02:39:12.018Z,58.64
2022-10-09T02:41:39.152Z,58.76
2022-10-09T02:44:07.111Z,58.83
2022-10-09T02:46:35.151Z,58.89
2022-10-09T02:49:02.519Z,58.95
2022-10-09T02:51:29.643Z,59.33
2022-10-09T02:53:56.879Z,59.67
2022-10-09T02:56:24.223Z,60.14
2022-10-09T02:58:51.563Z,60.21
2022-10-09T03:01:19.624Z,60.47
2022-10-09T03:03:47.177Z,60.29
2022-10-09T03:06:21.531Z,60.17
2022-10-09T03:08:50.467Z,60.30
2022-10-09T03:11:20.629Z,60.36
2022-10-09T03:13:48.061Z,60.34
2022-10-09T03:16:21.958Z,60.52
2022-10-09T03:18:50.546Z,60.57
2022-10-09T03:21:22.028Z,60.31
2022-10-09T03:23:49.709Z,60.62
2022-10-09T03:26:20.690Z,61.08
2022-10-09T03:28:50.244Z,60.74
2022-10-09T03:31:46.563Z,60.81
2022-10-09T03:34:07.419Z,61.14
2022-10-09T03:36:34.448Z,61.25
2022-10-09T03:39:01.493Z,61.25
2022-10-09T03:41:28.504Z,61.25
2022-10-09T03:43:55.516Z,61.41
2022-10-09T03:46:22.740Z,61.83
2022-10-09T03:48:49.818Z,61.79
2022-10-09T03:51:16.843Z,61.73
2022-10-09T03:53:43.862Z,61.74
2022-10-09T03:56:11.015Z,61.95
2022-10-09T03:58:38.004Z,62.42
2022-10-09T04:01:05.055Z,62.06
2022-10-09T04:03:32.164Z,61.95
2022-10-09T04:05:59.908Z,61.83
2022-10-09T04:08:27.688Z,61.73
2022-10-09T04:11:01.658Z,61.98
2022-10-09T04:13:28.833Z,61.98
2022-10-09T04:15:57.069Z,62.21
2022-10-09T04:18:24.795Z,62.31
2022-10-09T04:20:54.344Z,62.01
2022-10-09T04:23:25.397Z,62.19
2022-10-09T04:25:56.932Z,62.12
2022-10-09T04:28:24.999Z,62.04
2022-10-09T04:30:52.622Z,62.12
2022-10-09T04:33:19.782Z,62.41
2022-10-09T04:35:51.591Z,62.24
2022-10-09T04:38:20.060Z,62.27
2022-10-09T04:41:02.186Z,61.93
2022-10-09T04:43:30.534Z,62.19
2022-10-09T04:45:57.851Z,61.95
2022-10-09T04:48:25.744Z,62.25
2022-10-09T04:50:52.773Z,62.46
2022-10-09T04:53:19.928Z,62.17
2022-10-09T04:55:47.028Z,62.17
2022-10-09T04:58:14.414Z,62.19
2022-10-09T05:00:46.663Z,62.20
2022-10-09T05:03:14.047Z,61.97
2022-10-09T05:05:41.192Z,62.26
2022-10-09T05:08:08.312Z,62.35
2022-10-09T05:10:35.412Z,62.46
2022-10-09T05:13:02.504Z,62.18
2022-10-09T05:15:29.563Z,62.25
2022-10-09T05:17:56.602Z,62.07
2022-10-09T05:20:23.636Z,62.12
2022-10-09T05:22:50.960Z,62.29
2022-10-09T05:25:18.378Z,62.07
2022-10-09T05:27:45.458Z,62.01
2022-10-09T05:30:12.780Z,61.85
2022-10-09T05:32:39.797Z,61.97
2022-10-09T05:35:08.117Z,61.92
2022-10-09T05:37:35.143Z,61.73
2022-10-09T05:40:02.163Z,61.86
2022-10-09T05:42:29.202Z,61.93
2022-10-09T05:44:56.245Z,61.88
2022-10-09T05:47:23.244Z,61.91
2022-10-09T05:49:50.264Z,61.84
2022-10-09T05:52:17.307Z,62.02
2022-10-09T05:54:44.390Z,61.48
2022-10-09T05:57:11.434Z,61.68
2022-10-09T05:59:38.501Z,61.73
2022-10-09T06:02:05.627Z,61.32
2022-10-09T06:04:33.626Z,61.28
2022-10-09T06:07:00.600Z,61.37
2022-10-09T06:09:27.960Z,61.18
2022-10-09T06:11:55.491Z,60.93
2022-10-09T06:14:24.321Z,60.97
2022-10-09T06:16:51.564Z,60.74
2022-10-09T06:19:20.239Z,60.71
2022-10-09T06:21:47.876Z,60.36
2022-10-09T06:24:29.066Z,60.44
2022-10-09T06:26:57.911Z,59.51
2022-10-09T06:29:25.281Z,59.28
2022-10-09T06:31:52.381Z,59.18
2022-10-09T06:34:19.570Z,58.98
2022-10-09T06:36:46.595Z,58.60
2022-10-09T06:39:13.715Z,58.04
2022-10-09T06:41:41.143Z,57.56
2022-10-09T06:44:23.713Z,57.52
2022-10-09T06:46:51.919Z,57.08
2022-10-09T06:49:18.997Z,56.86
2022-10-09T06:51:46.039Z,56.18
2022-10-09T06:54:16.280Z,55.84
2022-10-09T06:56:43.733Z,55.91
2022-10-09T06:59:11.579Z,55.80
2022-10-09T07:01:40.120Z,55.43
2022-10-09T07:04:12.114Z,53.84
2022-10-09T07:06:43.339Z,52.92
2022-10-09T07:09:13.749Z,52.54
2022-10-09T07:11:44.815Z,52.74
2022-10-09T07:14:14.290Z,52.21
2022-10-09T07:16:45.149Z,52.27
2022-10-09T07:19:13.922Z,51.58
2022-10-09T07:21:43.839Z,51.73
2022-10-09T07:24:12.834Z,51.55
2022-10-09T07:26:44.339Z,51.17
2022-10-09T07:29:15.365Z,50.96
2022-10-09T07:31:42.503Z,50.58
2022-10-09T07:34:10.417Z,50.60
2022-10-09T07:36:37.498Z,50.74
2022-10-09T07:39:05.786Z,50.01
2022-10-09T07:41:33.203Z,49.70
2022-10-09T07:44:00.452Z,49.49
2022-10-09T07:46:33.486Z,49.59
2022-10-09T07:49:02.309Z,49.40
2022-10-09T07:51:30.829Z,49.22
2022-10-09T07:54:00.048Z,49.14
2022-10-09T07:56:36.228Z,49.04
2022-10-09T07:59:15.791Z,48.85
2022-10-09T08:01:42.967Z,48.48
2022-10-09T08:04:10.166Z,48.64
2022-10-09T08:06:37.371Z,48.45
2022-10-09T08:09:07.335Z,48.31
2022-10-09T08:11:35.395Z,48.58
2022-10-09T08:14:02.545Z,48.57
2022-10-09T08:16:31.703Z,48.17
2022-10-09T08:19:00.631Z,47.73
2022-10-09T08:21:28.728Z,47.77
2022-10-09T08:23:58.810Z,47.93
2022-10-09T08:26:30.957Z,47.61
2022-10-09T08:29:03.234Z,47.42
2022-10-09T08:31:31.969Z,47.14
2022-10-09T08:34:01.440Z,47.17
2022-10-09T08:36:29.836Z,47.29
2022-10-09T08:38:57.130Z,46.38
2022-10-09T08:41:33.473Z,46.63
2022-10-09T08:44:40.451Z,46.27
2022-10-09T08:47:27.452Z,46.48
2022-10-09T08:50:08.925Z,46.61
2022-10-09T08:52:50.311Z,46.23
2022-10-09T08:55:32.294Z,46.25
2022-10-09T08:58:06.963Z,45.83
2022-10-09T09:00:55.715Z,45.63
2022-10-09T09:03:53.923Z,45.35
2022-10-09T09:06:39.007Z,45.50
2022-10-09T09:09:43.230Z,45.36
2022-10-09T09:12:37.844Z,45.60
2022-10-09T09:15:46.218Z,45.89
2022-10-09T09:18:43.621Z,45.80
2022-10-09T09:21:40.460Z,45.71
2022-10-09T09:24:19.873Z,45.83
2022-10-09T09:26:52.808Z,45.51
2022-10-09T09:29:23.741Z,45.79
2022-10-09T09:32:00.097Z,45.31
2022-10-09T09:34:41.822Z,45.13
2022-10-09T09:37:12.184Z,44.94
2022-10-09T09:40:34.783Z,45.60
2022-10-09T09:42:28.776Z,44.83
2022-10-09T09:45:03.278Z,44.50
2022-10-09T09:47:46.927Z,44.91
2022-10-09T09:50:28.811Z,44.99
2022-10-09T09:53:25.366Z,44.79
2022-10-09T09:55:54.019Z,45.15
2022-10-09T09:58:22.690Z,45.17
2022-10-09T10:01:00.947Z,44.72
2022-10-09T10:03:28.804Z,44.08
2022-10-09T10:05:56.504Z,43.86
2022-10-09T10:08:32.133Z,44.38
2022-10-09T10:11:03.118Z,44.13
2022-10-09T10:13:55.874Z,43.59
2022-10-09T10:16:27.461Z,43.40
2022-10-09T10:18:58.887Z,43.70
2022-10-09T10:21:26.026Z,43.35
2022-10-09T10:26:49.075Z,42.35
2022-10-09T10:29:17.670Z,41.62
2022-10-09T10:31:52.139Z,40.67
2022-10-09T10:34:30.660Z,40.97
2022-10-09T10:37:27.396Z,41.06
2022-10-09T10:40:01.530Z,41.58
2022-10-09T10:42:44.603Z,41.61
2022-10-09T10:45:41.034Z,41.67
2022-10-09T10:48:25.734Z,41.20
2022-10-09T10:51:20.915Z,40.75
2022-10-09T10:54:14.102Z,40.57
2022-10-09T10:56:58.972Z,40.35
2022-10-09T11:00:11.791Z,39.28
2022-10-09T11:03:19.303Z,39.63
2022-10-09T11:06:14.969Z,39.05
2022-10-09T11:09:03.640Z,36.94
2022-10-09T11:11:39.833Z,35.17
2022-10-09T11:14:44.806Z,31.82
2022-10-09T11:17:43.023Z,29.66
2022-10-09T11:21:00.399Z,27.74
2022-10-09T11:23:36.631Z,25.90
2022-10-09T11:26:19.079Z,24.67
2022-10-09T11:29:23.659Z,23.71
2022-10-09T11:32:01.879Z,22.97
2022-10-09T11:34:37.620Z,22.28
2022-10-09T11:37:12.313Z,22.34
2022-10-09T11:39:40.501Z,21.34
2022-10-09T11:42:12.325Z,20.83
2022-10-09T11:44:56.249Z,20.14
2022-10-09T11:47:38.522Z,19.67
2022-10-09T11:50:47.661Z,19.73
2022-10-09T11:53:23.080Z,19.31
2022-10-09T11:56:05.284Z,19.60
2022-10-09T11:58:32.831Z,19.36
2022-10-09T12:01:19.920Z,19.34
2022-10-09T12:03:47.652Z,19.20
2022-10-09T12:06:17.515Z,19.40
2022-10-09T12:08:59.363Z,19.28
2022-10-09T12:11:27.393Z,18.95
2022-10-09T12:14:01.784Z,18.74
2022-10-09T12:16:43.027Z,18.48
2022-10-09T12:19:25.243Z,18.86
2022-10-09T12:22:06.943Z,18.91
2022-10-09T12:24:48.601Z,18.96
2022-10-09T12:27:36.778Z,19.02
2022-10-09T12:30:14.223Z,18.79
2022-10-09T12:32:55.256Z,19.02
2022-10-09T12:35:29.641Z,18.75
2022-10-09T12:37:56.695Z,18.75
2022-10-09T12:40:29.471Z,19.06
2022-10-09T12:42:59.496Z,19.12
2022-10-09T12:45:30.387Z,18.69
2022-10-09T12:48:00.658Z,18.57
2022-10-09T12:50:35.843Z,18.46
2022-10-09T12:53:25.224Z,18.68
2022-10-09T12:55:59.407Z,18.63
2022-10-09T12:58:33.921Z,18.21
2022-10-09T13:01:08.347Z,18.10
2022-10-09T13:03:52.436Z,18.48
2022-10-09T13:06:23.641Z,18.32
2022-10-09T13:09:07.411Z,18.46
2022-10-09T13:11:50.966Z,18.32
2022-10-09T13:14:46.845Z,19.11
2022-10-09T13:17:43.927Z,19.03
2022-10-09T13:20:16.828Z,19.06
2022-10-09T13:23:06.028Z,18.75
2022-10-09T13:25:39.551Z,18.58
2022-10-09T13:28:06.919Z,18.44
2022-10-09T13:30:34.438Z,18.57
2022-10-09T13:33:01.557Z,18.82
2022-10-09T13:35:28.701Z,18.76
2022-10-09T13:37:55.761Z,18.65
2022-10-09T13:40:23.262Z,18.74
2022-10-09T13:42:55.030Z,18.61
2022-10-09T13:45:23.096Z,18.75
2022-10-09T13:47:50.254Z,18.39
2022-10-09T13:50:18.062Z,18.59
2022-10-09T13:52:45.263Z,18.74
2022-10-09T13:55:13.038Z,18.44
2022-10-09T13:57:40.211Z,18.58
2022-10-09T14:00:08.530Z,17.98
2022-10-09T14:02:41.748Z,17.82
2022-10-09T14:05:09.263Z,18.07
2022-10-09T14:07:36.783Z,17.83
2022-10-09T14:10:05.371Z,17.92
2022-10-09T14:12:32.646Z,17.83
2022-10-09T14:14:59.704Z,17.95
2022-10-09T14:17:27.035Z,17.78
2022-10-09T14:19:54.754Z,17.93
2022-10-09T14:22:21.993Z,17.58
2022-10-09T14:24:49.113Z,17.74
2022-10-09T14:27:16.124Z,17.79
2022-10-09T14:29:43.168Z,17.75
2022-10-09T14:32:10.533Z,17.51
2022-10-09T14:34:37.611Z,17.58
2022-10-09T14:37:13.617Z,18.08
2022-10-09T14:39:46.864Z,18.30
2022-10-09T14:42:14.648Z,18.09
2022-10-09T14:44:42.431Z,18.55
2022-10-09T14:47:09.466Z,18.35
2022-10-09T14:49:36.597Z,18.79
2022-10-09T14:52:03.930Z,18.56
2022-10-09T14:54:31.072Z,18.76
2022-10-09T14:56:58.086Z,18.80
2022-10-09T14:59:25.301Z,19.16
2022-10-09T15:01:52.530Z,19.36
2022-10-09T15:04:19.839Z,19.62
2022-10-09T15:06:46.993Z,20.45
2022-10-09T15:09:14.414Z,21.16
2022-10-09T15:11:41.510Z,21.95
2022-10-09T15:14:08.723Z,22.94
2022-10-09T15:16:38.632Z,24.72
2022-10-09T15:19:06.275Z,26.36
2022-10-09T15:21:35.334Z,27.63
2022-10-09T15:24:04.547Z,28.59
2022-10-09T15:26:35.758Z,29.53
2022-10-09T15:29:07.904Z,30.74
2022-10-09T15:31:39.162Z,31.18
2022-10-09T15:34:09.071Z,31.65
2022-10-09T15:36:40.013Z,32.55
2022-10-09T15:39:09.105Z,32.97
2022-10-09T15:41:39.207Z,33.00
2022-10-09T15:44:19.830Z,33.71
2022-10-09T15:46:48.848Z,33.91
2022-10-09T15:49:16.645Z,34.38
2022-10-09T15:51:44.187Z,34.56
2022-10-09T15:54:13.017Z,34.84
2022-10-09T15:56:41.403Z,35.21
2022-10-09T15:59:16.805Z,35.39
2022-10-09T16:01:44.310Z,35.96
2022-10-09T16:04:16.072Z,36.46
2022-10-09T16:06:43.344Z,36.93
2022-10-09T16:09:10.351Z,37.18
2022-10-09T16:11:37.496Z,37.56
2022-10-09T16:14:05.082Z,37.91
2022-10-09T16:16:34.643Z,38.18
2022-10-09T16:19:04.441Z,38.64
2022-10-09T16:21:31.850Z,38.83
2022-10-09T16:24:00.243Z,39.21
2022-10-09T16:26:29.927Z,39.60
2022-10-09T16:28:58.018Z,40.02
2022-10-09T16:31:31.583Z,40.50
2022-10-09T16:33:59.317Z,40.66
2022-10-09T16:36:27.404Z,41.02
2022-10-09T16:38:56.209Z,41.58
2022-10-09T16:41:24.652Z,41.71
2022-10-09T16:43:55.440Z,42.03
2022-10-09T16:46:24.537Z,42.71
2022-10-09T16:48:53.485Z,42.55
2022-10-09T16:51:25.073Z,43.09
2022-10-09T16:53:54.662Z,43.00
2022-10-09T16:56:30.098Z,43.67
2022-10-09T16:58:59.838Z,44.42
2022-10-09T17:01:28.241Z,44.67
2022-10-09T17:03:57.268Z,44.45
2022-10-09T17:06:25.178Z,44.38
2022-10-09T17:08:55.471Z,45.18
2022-10-09T17:11:24.813Z,45.17
2022-10-09T17:13:56.790Z,45.29
2022-10-09T17:16:28.780Z,45.71
2022-10-09T17:18:56.669Z,45.90
2022-10-09T17:21:26.710Z,46.00
2022-10-09T17:24:07.806Z,46.08
2022-10-09T17:26:37.289Z,45.97
2022-10-09T17:29:06.132Z,45.94
2022-10-09T17:31:33.849Z,45.89
2022-10-09T17:34:03.670Z,46.43
2022-10-09T17:36:35.840Z,46.72
2022-10-09T17:39:05.297Z,46.61
2022-10-09T17:41:32.402Z,46.92
2022-10-09T17:43:59.680Z,47.35
2022-10-09T17:46:28.551Z,47.41
2022-10-09T17:48:56.989Z,48.05
2022-10-09T17:51:29.650Z,48.36
2022-10-09T17:54:01.611Z,48.47
2022-10-09T17:56:30.901Z,48.65
2022-10-09T17:59:02.446Z,48.86
2022-10-09T18:01:30.236Z,49.22
2022-10-09T18:03:58.094Z,49.53
2022-10-09T18:06:25.876Z,49.61
2022-10-09T18:08:55.581Z,49.45
2022-10-09T18:11:25.058Z,49.55
2022-10-09T18:13:52.846Z,49.95
2022-10-09T18:16:35.381Z,50.14
2022-10-09T18:19:14.467Z,50.58
2022-10-09T18:21:44.883Z,50.72
2022-10-09T18:24:12.749Z,50.23
2022-10-09T18:26:40.476Z,50.30
2022-10-09T18:29:07.851Z,50.68
2022-10-09T18:31:35.230Z,50.63
2022-10-09T18:34:02.811Z,50.59
2022-10-09T18:36:31.691Z,50.76
2022-10-09T18:39:13.350Z,51.08
2022-10-09T18:41:41.699Z,51.07
2022-10-09T18:44:17.778Z,51.43
2022-10-09T18:46:52.136Z,51.56
2022-10-09T18:49:23.307Z,51.65
2022-10-09T18:51:51.452Z,52.14
2022-10-09T18:54:21.513Z,52.23
2022-10-09T18:56:49.260Z,52.56
2022-10-09T18:59:21.544Z,52.66
2022-10-09T19:01:49.240Z,52.89
2022-10-09T19:04:16.659Z,52.77
2022-10-09T19:06:43.778Z,53.37
2022-10-09T19:09:10.953Z,53.36
2022-10-09T19:11:38.459Z,53.55
2022-10-09T19:14:06.418Z,53.63
2022-10-09T19:16:35.749Z,53.51
2022-10-09T19:19:03.330Z,53.61
2022-10-09T19:21:30.377Z,53.57
2022-10-09T19:24:03.434Z,53.54
2022-10-09T19:26:30.734Z,53.63
2022-10-09T19:28:57.938Z,53.83
2022-10-09T19:31:25.662Z,53.65
2022-10-09T19:33:53.390Z,53.71
2022-10-09T19:36:20.547Z,53.36
2022-10-09T19:38:48.306Z,53.47
2022-10-09T19:41:16.082Z,53.65
2022-10-09T19:43:43.750Z,53.63
2022-10-09T19:46:17.093Z,54.08
2022-10-09T19:48:45.890Z,54.32
2022-10-09T19:51:17.040Z,54.40
2022-10-09T19:53:44.700Z,54.62
2022-10-09T19:56:22.939Z,54.71
2022-10-09T19:58:50.212Z,54.96
2022-10-09T20:01:21.611Z,54.88
2022-10-09T20:03:57.595Z,54.73
2022-10-09T20:06:25.658Z,55.04
2022-10-09T20:08:53.004Z,54.95
2022-10-09T20:11:20.856Z,54.91
2022-10-09T20:13:55.978Z,55.29
2022-10-09T20:16:24.838Z,55.36
2022-10-09T20:18:51.939Z,55.27
2022-10-09T20:21:19.551Z,55.25
2022-10-09T20:23:46.618Z,55.06
2022-10-09T20:26:17.991Z,55.09
2022-10-09T20:28:45.482Z,54.97
2022-10-09T20:31:18.678Z,54.92
2022-10-09T20:33:48.065Z,55.03
2022-10-09T20:36:26.493Z,54.93
2022-10-09T20:39:00.387Z,55.00
2022-10-09T20:41:30.203Z,54.95
2022-10-09T20:43:59.987Z,54.82
2022-10-09T20:46:37.407Z,54.79
2022-10-09T20:49:11.317Z,54.66
2022-10-09T20:51:39.790Z,54.57
2022-10-09T20:54:08.705Z,54.48
2022-10-09T20:56:36.843Z,54.26
2022-10-09T20:59:04.268Z,54.24
2022-10-09T21:01:31.474Z,54.49
2022-10-09T21:03:59.378Z,54.25
2022-10-09T21:06:27.127Z,54.31
2022-10-09T21:08:54.810Z,54.30
2022-10-09T21:11:22.085Z,54.52
2022-10-09T21:13:50.147Z,54.61
2022-10-09T21:16:21.436Z,54.56
2022-10-09T21:18:48.939Z,54.43
2022-10-09T21:21:17.914Z,54.63
2022-10-09T21:23:46.081Z,54.58
2022-10-09T21:26:18.229Z,54.48
2022-10-09T21:28:46.520Z,54.82
2022-10-09T21:31:27.478Z,54.88
2022-10-09T21:33:55.050Z,54.94
2022-10-09T21:39:45.077Z,55.05
2022-10-09T21:42:12.082Z,55.06
2022-10-09T21:44:39.150Z,55.00
2022-10-09T21:47:06.189Z,55.22
2022-10-09T21:49:33.227Z,55.44
2022-10-09T21:52:00.268Z,55.54
2022-10-09T21:54:27.478Z,55.68
2022-10-09T21:56:54.597Z,55.71
2022-10-09T21:59:21.599Z,55.73
2022-10-09T22:01:48.617Z,55.80
2022-10-09T22:04:15.742Z,55.89
2022-10-09T22:06:43.397Z,55.91
2022-10-09T22:09:11.784Z,56.06
2022-10-09T22:11:38.965Z,55.87
2022-10-09T22:14:06.186Z,56.07
2022-10-09T22:16:33.360Z,56.04
2022-10-09T22:19:01.680Z,56.41
2022-10-09T22:21:28.784Z,56.46
2022-10-09T22:23:55.867Z,56.51
2022-10-09T22:26:23.392Z,56.56
2022-10-09T22:28:50.545Z,56.58
2022-10-09T22:31:24.608Z,56.61
2022-10-09T22:34:00.987Z,56.40
2022-10-09T22:36:31.665Z,56.58
2022-10-09T22:39:03.282Z,56.68
2022-10-09T22:41:31.087Z,56.90
2022-10-09T22:44:00.350Z,56.96
2022-10-09T22:46:36.496Z,57.03
2022-10-09T22:49:05.532Z,57.33
2022-10-09T22:51:32.648Z,57.44
2022-10-09T22:54:00.493Z,57.70
2022-10-09T22:56:32.606Z,57.53
2022-10-09T22:58:59.879Z,57.64
2022-10-09T23:01:31.690Z,57.50
2022-10-09T23:04:01.353Z,57.48
2022-10-09T23:06:28.474Z,57.81
2022-10-09T23:08:56.061Z,57.97
2022-10-09T23:11:24.470Z,57.99
2022-10-09T23:13:57.836Z,57.85
2022-10-09T23:16:26.230Z,57.99
2022-10-09T23:18:53.360Z,58.21
2022-10-09T23:21:23.762Z,57.98
2022-10-09T23:23:52.020Z,58.15
2022-10-09T23:26:26.997Z,57.78
2022-10-09T23:29:06.351Z,58.33
2022-10-09T23:31:34.928Z,58.31
2022-10-09T23:34:03.753Z,58.35
2022-10-09T23:36:30.969Z,58.44
2022-10-09T23:38:59.065Z,58.36
2022-10-09T23:41:28.371Z,58.29
2022-10-09T23:43:56.462Z,58.33
2022-10-09T23:46:27.932Z,58.08
2022-10-09T23:48:56.166Z,58.15
2022-10-09T23:51:25.209Z,57.97
2022-10-09T23:53:52.670Z,58.00
2022-10-09T23:56:32.522Z,57.90
2022-10-09T23:59:01.824Z,57.97
